Time;durP1;ratioP1;P1;durP2;ratioP2;P2;SDS_P1;SDS_P2;PMS_P1;PMS_P2;Temp;Humidity;BMP_temperature;BMP_pressure;BME280_temperature;BME280_humidity;BME280_pressure;Samples;Min_cycle;Max_cycle;Signal;HPM_P1;HPM_P2
2022/09/17 00:01:16;;;;;;;;;;;11.10;99.90;;;;;;4973061;28;19917;-77
2022/09/17 00:03:43;;;;;;;;;;;11.00;99.90;;;;;;4973546;28;19911;-76
2022/09/17 00:06:10;;;;;;;;;;;11.00;99.90;;;;;;4971972;28;20407;-78
2022/09/17 00:08:36;;;;;;;;;;;11.00;99.90;;;;;;4964577;28;20319;-78
2022/09/17 00:11:12;;;;;;;;;;;11.10;99.90;;;;;;4960373;28;19914;-77
2022/09/17 00:13:38;;;;;;;;;;;11.10;99.90;;;;;;4956530;28;19933;-78
2022/09/17 00:16:04;;;;;;;;;;;11.10;99.90;;;;;;4958085;28;20293;-78
2022/09/17 00:18:29;;;;;;;;;;;11.10;99.90;;;;;;4955058;28;20431;-77
2022/09/17 00:20:55;;;;;;;;;;;11.20;99.90;;;;;;4963748;28;20347;-76
2022/09/17 00:23:21;;;;;;;;;;;11.20;99.90;;;;;;4954121;28;19918;-77
2022/09/17 00:25:46;;;;;;;;;;;11.20;99.90;;;;;;4962360;28;19914;-79
2022/09/17 00:28:13;;;;;;;;;;;11.30;99.90;;;;;;4963057;28;19957;-79
2022/09/17 00:30:39;;;;;;;;;;;11.30;99.90;;;;;;4972752;28;19961;-77
2022/09/17 00:33:05;;;;;;;;;;;11.30;99.90;;;;;;4965185;28;19915;-79
2022/09/17 00:35:30;;;;;;;;;;;11.40;99.90;;;;;;4969956;28;19918;-78
2022/09/17 00:37:56;;;;;;;;;;;11.40;99.90;;;;;;4963870;28;19914;-78
2022/09/17 00:40:22;;;;;;;;;;;11.40;99.90;;;;;;4957990;28;19918;-78
2022/09/17 00:42:47;;;;;;;;;;;11.40;99.90;;;;;;4955961;28;19949;-78
2022/09/17 00:45:13;;;;;;;;;;;11.50;99.90;;;;;;4966403;28;19915;-78
2022/09/17 00:47:44;;;;;;;;;;;11.50;99.90;;;;;;4961642;28;19919;-77
2022/09/17 00:50:18;;;;;;;;;;;11.50;99.90;;;;;;4969660;28;19910;-78
2022/09/17 00:52:48;;;;;;;;;;;11.50;99.90;;;;;;4963015;28;19973;-78
2022/09/17 00:55:20;;;;;;;;;;;11.50;99.90;;;;;;4962563;28;19914;-78
2022/09/17 00:57:47;;;;;;;;;;;11.50;99.90;;;;;;4961133;28;20360;-78
2022/09/17 01:00:14;;;;;;;;;;;11.50;99.90;;;;;;4964051;28;19950;-78
2022/09/17 01:02:40;;;;;;;;;;;11.50;99.90;;;;;;4958627;28;20000;-77
2022/09/17 01:05:06;;;;;;;;;;;11.60;99.90;;;;;;4964667;28;19937;-78
2022/09/17 01:07:37;;;;;;;;;;;11.60;99.90;;;;;;4963531;28;19944;-78
2022/09/17 01:10:22;;;;;;;;;;;11.60;99.90;;;;;;4978017;28;19910;-78
2022/09/17 01:12:50;;;;;;;;;;;11.60;99.90;;;;;;4973656;28;19916;-78
2022/09/17 01:15:16;;;;;;;;;;;11.60;99.90;;;;;;4959925;28;19921;-78
2022/09/17 01:17:53;;;;;;;;;;;11.60;99.90;;;;;;4959742;28;20298;-78
2022/09/17 01:20:22;;;;;;;;;;;11.60;99.90;;;;;;4955140;28;19914;-78
2022/09/17 01:23:06;;;;;;;;;;;11.50;99.90;;;;;;4960148;28;19915;-78
2022/09/17 01:25:40;;;;;;;;;;;11.60;99.90;;;;;;4953914;28;19923;-78
2022/09/17 01:28:12;;;;;;;;;;;11.60;99.90;;;;;;4956464;28;20447;-77
2022/09/17 01:30:59;;;;;;;;;;;11.60;99.90;;;;;;4955716;28;20324;-78
2022/09/17 01:33:25;;;;;;;;;;;11.60;99.90;;;;;;4952956;28;19925;-77
2022/09/17 01:35:53;;;;;;;;;;;11.60;99.90;;;;;;4957191;28;20009;-77
2022/09/17 01:38:22;;;;;;;;;;;11.60;99.90;;;;;;4963532;28;19962;-77
2022/09/17 01:40:50;;;;;;;;;;;11.50;99.90;;;;;;4955459;28;20392;-77
2022/09/17 01:43:26;;;;;;;;;;;11.60;99.90;;;;;;4961392;28;19914;-77
2022/09/17 01:45:55;;;;;;;;;;;11.60;99.90;;;;;;4958206;28;19961;-78
2022/09/17 01:48:26;;;;;;;;;;;11.50;99.90;;;;;;4955949;28;19925;-77
2022/09/17 01:50:57;;;;;;;;;;;11.50;99.90;;;;;;4954874;28;19918;-78
2022/09/17 01:53:27;;;;;;;;;;;11.50;99.90;;;;;;4962964;28;19914;-78
2022/09/17 01:55:53;;;;;;;;;;;11.50;99.90;;;;;;4951878;28;19914;-78
2022/09/17 01:58:24;;;;;;;;;;;11.50;99.90;;;;;;4954871;28;20320;-77
2022/09/17 02:00:52;;;;;;;;;;;11.50;99.90;;;;;;4957688;28;19923;-78
2022/09/17 02:03:21;;;;;;;;;;;11.50;99.90;;;;;;4967861;28;19915;-77
2022/09/17 02:05:53;;;;;;;;;;;11.50;99.90;;;;;;4953538;28;20358;-78
2022/09/17 02:08:30;;;;;;;;;;;11.50;99.90;;;;;;4949432;28;20271;-78
2022/09/17 02:11:03;;;;;;;;;;;11.50;99.90;;;;;;4957471;28;19946;-77
2022/09/17 02:13:49;;;;;;;;;;;11.50;99.90;;;;;;4951872;28;19922;-78
2022/09/17 02:16:21;;;;;;;;;;;11.50;99.90;;;;;;4956113;28;19918;-77
2022/09/17 02:19:06;;;;;;;;;;;11.50;99.90;;;;;;4950612;28;19915;-77
2022/09/17 02:21:31;;;;;;;;;;;11.50;99.90;;;;;;4950476;28;20047;-77
2022/09/17 02:24:02;;;;;;;;;;;11.40;99.90;;;;;;4953496;28;19971;-78
2022/09/17 02:26:28;;;;;;;;;;;11.50;99.90;;;;;;4957169;28;19914;-78
2022/09/17 02:28:57;;;;;;;;;;;11.40;99.90;;;;;;4954142;28;19917;-77
2022/09/17 02:31:23;;;;;;;;;;;11.40;99.90;;;;;;4956439;28;20008;-78
2022/09/17 02:33:50;;;;;;;;;;;11.40;99.90;;;;;;4952011;28;20372;-78
2022/09/17 02:36:16;;;;;;;;;;;11.30;99.90;;;;;;4953808;28;19914;-78
2022/09/17 02:38:43;;;;;;;;;;;11.30;99.90;;;;;;4953210;28;20367;-77
2022/09/17 02:41:14;;;;;;;;;;;11.30;99.90;;;;;;4957758;28;20001;-77
2022/09/17 02:44:01;;;;;;;;;;;11.20;99.90;;;;;;4956920;28;19945;-77
2022/09/17 02:46:41;;;;;;;;;;;11.20;99.90;;;;;;4961777;28;19910;-76
2022/09/17 02:49:07;;;;;;;;;;;11.20;99.90;;;;;;4996397;23;20452;-73
2022/09/17 02:51:33;;;;;;;;;;;11.10;99.90;;;;;;4988506;28;19922;-74
2022/09/17 02:54:01;;;;;;;;;;;11.10;99.90;;;;;;4988912;28;19922;-73
2022/09/17 02:56:29;;;;;;;;;;;11.10;99.90;;;;;;4984460;28;20225;-73
2022/09/17 02:59:00;;;;;;;;;;;11.00;99.90;;;;;;4987897;28;19921;-73
2022/09/17 03:01:37;;;;;;;;;;;11.00;99.90;;;;;;4990428;28;19914;-74
2022/09/17 03:04:04;;;;;;;;;;;11.00;99.90;;;;;;4985120;28;24082;-74
2022/09/17 03:06:29;;;;;;;;;;;11.00;99.90;;;;;;4988049;28;19975;-73
2022/09/17 03:08:56;;;;;;;;;;;11.00;99.90;;;;;;4984995;28;20205;-74
2022/09/17 03:11:21;;;;;;;;;;;11.00;99.90;;;;;;4972246;28;20300;-73
2022/09/17 03:13:47;;;;;;;;;;;11.00;99.90;;;;;;4984119;28;19924;-73
2022/09/17 03:16:13;;;;;;;;;;;10.90;99.90;;;;;;4967302;28;19965;-73
2022/09/17 03:18:38;;;;;;;;;;;10.90;99.90;;;;;;4986433;28;19918;-75
2022/09/17 03:21:04;;;;;;;;;;;10.90;99.90;;;;;;4983343;28;19914;-73
2022/09/17 03:23:29;;;;;;;;;;;10.80;99.90;;;;;;4983027;28;20495;-73
2022/09/17 03:25:55;;;;;;;;;;;10.80;99.90;;;;;;4984095;28;20371;-72
2022/09/17 03:28:20;;;;;;;;;;;10.80;99.90;;;;;;4987602;28;19913;-73
2022/09/17 03:30:46;;;;;;;;;;;10.80;99.90;;;;;;4988998;28;19964;-73
2022/09/17 03:33:12;;;;;;;;;;;10.80;99.90;;;;;;4986384;28;20338;-73
2022/09/17 03:35:41;;;;;;;;;;;10.80;99.90;;;;;;4989860;28;20395;-74
2022/09/17 03:38:06;;;;;;;;;;;10.80;99.90;;;;;;4990391;28;19921;-74
2022/09/17 03:40:32;;;;;;;;;;;10.80;99.90;;;;;;4986571;28;19914;-73
2022/09/17 03:42:57;;;;;;;;;;;10.80;99.90;;;;;;4972814;28;19936;-74
2022/09/17 03:45:23;;;;;;;;;;;10.80;99.90;;;;;;4974695;28;20367;-73
2022/09/17 03:47:48;;;;;;;;;;;10.80;99.90;;;;;;4992996;28;19920;-74
2022/09/17 03:50:14;;;;;;;;;;;10.80;99.90;;;;;;4988450;28;23978;-74
2022/09/17 03:52:41;;;;;;;;;;;10.80;99.90;;;;;;4986075;28;19918;-74
2022/09/17 03:55:07;;;;;;;;;;;10.80;99.90;;;;;;4987793;28;19964;-74
2022/09/17 03:57:32;;;;;;;;;;;10.80;99.90;;;;;;4974989;28;20290;-74
2022/09/17 03:59:57;;;;;;;;;;;10.80;99.90;;;;;;4989425;28;20389;-74
2022/09/17 04:02:23;;;;;;;;;;;10.70;99.90;;;;;;4992301;28;19968;-74
2022/09/17 04:04:48;;;;;;;;;;;10.70;99.90;;;;;;4989471;28;20339;-74
2022/09/17 04:07:14;;;;;;;;;;;10.70;99.90;;;;;;4988069;28;19938;-74
2022/09/17 04:09:39;;;;;;;;;;;10.60;99.90;;;;;;4990777;28;20260;-74
2022/09/17 04:12:05;;;;;;;;;;;10.60;99.90;;;;;;4990971;28;19962;-74
2022/09/17 04:14:30;;;;;;;;;;;10.60;99.90;;;;;;4991990;28;20042;-74
2022/09/17 04:16:57;;;;;;;;;;;10.60;99.90;;;;;;4990726;28;19921;-74
2022/09/17 04:19:22;;;;;;;;;;;10.60;99.90;;;;;;4991256;28;19914;-74
2022/09/17 04:21:48;;;;;;;;;;;10.60;99.90;;;;;;4993513;28;19972;-73
2022/09/17 04:24:13;;;;;;;;;;;10.60;99.90;;;;;;4989238;28;19914;-73
2022/09/17 04:26:39;;;;;;;;;;;10.60;99.90;;;;;;4972447;28;20271;-73
2022/09/17 04:29:04;;;;;;;;;;;10.60;99.90;;;;;;4995196;28;19947;-73
2022/09/17 04:31:30;;;;;;;;;;;10.60;99.90;;;;;;4991333;28;19961;-74
2022/09/17 04:33:55;;;;;;;;;;;10.50;99.90;;;;;;4988618;28;19918;-74
2022/09/17 04:36:21;;;;;;;;;;;10.50;99.90;;;;;;4990744;28;19921;-75
2022/09/17 04:38:47;;;;;;;;;;;10.50;99.90;;;;;;4992447;28;19945;-74
2022/09/17 04:41:12;;;;;;;;;;;10.50;99.90;;;;;;4994977;28;19921;-74
2022/09/17 04:43:38;;;;;;;;;;;10.50;99.90;;;;;;4990927;28;19921;-74
2022/09/17 04:46:03;;;;;;;;;;;10.50;99.90;;;;;;4970908;28;19972;-74
2022/09/17 04:48:29;;;;;;;;;;;10.50;99.90;;;;;;4991872;28;20497;-73
2022/09/17 04:50:54;;;;;;;;;;;10.50;99.90;;;;;;4987098;28;19933;-73
2022/09/17 04:53:20;;;;;;;;;;;10.50;99.90;;;;;;4990735;28;20509;-74
2022/09/17 04:55:45;;;;;;;;;;;10.50;99.90;;;;;;4990779;28;19921;-74
2022/09/17 04:58:11;;;;;;;;;;;10.50;99.90;;;;;;4994472;28;20325;-74
2022/09/17 05:00:36;;;;;;;;;;;10.40;99.90;;;;;;4990380;28;19968;-74
2022/09/17 05:03:02;;;;;;;;;;;10.40;99.90;;;;;;4987786;28;20029;-74
2022/09/17 05:05:28;;;;;;;;;;;10.40;99.90;;;;;;4993771;28;19918;-74
2022/09/17 05:07:53;;;;;;;;;;;10.40;99.90;;;;;;4972318;28;20004;-74
2022/09/17 05:10:22;;;;;;;;;;;10.30;99.90;;;;;;4988379;28;19920;-71
2022/09/17 05:12:48;;;;;;;;;;;10.30;99.90;;;;;;4990351;28;20016;-71
2022/09/17 05:15:13;;;;;;;;;;;10.40;99.90;;;;;;4986756;28;20271;-72
2022/09/17 05:17:39;;;;;;;;;;;10.50;99.90;;;;;;4987702;28;19921;-71
2022/09/17 05:20:04;;;;;;;;;;;10.60;99.90;;;;;;4993788;28;19965;-72
2022/09/17 05:22:30;;;;;;;;;;;10.60;99.90;;;;;;4988540;28;19918;-71
2022/09/17 05:24:56;;;;;;;;;;;10.70;99.90;;;;;;4993167;28;19920;-71
2022/09/17 05:27:21;;;;;;;;;;;10.80;99.90;;;;;;4988850;28;19917;-71
2022/09/17 05:29:47;;;;;;;;;;;10.80;99.90;;;;;;4983850;28;19922;-71
2022/09/17 05:32:12;;;;;;;;;;;10.80;99.90;;;;;;4981691;28;19914;-71
2022/09/17 05:34:38;;;;;;;;;;;10.80;99.90;;;;;;4991835;28;19932;-73
2022/09/17 05:37:03;;;;;;;;;;;10.90;99.90;;;;;;4988864;28;19920;-74
2022/09/17 05:39:29;;;;;;;;;;;10.90;99.90;;;;;;4982576;28;19914;-75
2022/09/17 05:41:54;;;;;;;;;;;10.90;99.90;;;;;;4990398;28;19914;-76
2022/09/17 05:44:24;;;;;;;;;;;10.90;99.90;;;;;;4990822;28;19918;-74
2022/09/17 05:46:51;;;;;;;;;;;10.90;99.90;;;;;;4969641;28;19918;-74
2022/09/17 05:49:17;;;;;;;;;;;10.90;99.90;;;;;;4984085;28;20433;-73
2022/09/17 05:51:42;;;;;;;;;;;10.90;99.90;;;;;;4985098;28;19913;-74
2022/09/17 05:54:08;;;;;;;;;;;10.90;99.90;;;;;;4970390;28;19918;-75
2022/09/17 05:56:34;;;;;;;;;;;10.90;99.90;;;;;;4972215;28;19914;-75
2022/09/17 05:58:59;;;;;;;;;;;10.90;99.90;;;;;;4985008;28;19914;-75
2022/09/17 06:01:25;;;;;;;;;;;10.90;99.90;;;;;;4986721;28;19923;-74
2022/09/17 06:03:51;;;;;;;;;;;10.90;99.90;;;;;;4984480;28;19914;-74
2022/09/17 06:06:16;;;;;;;;;;;10.90;99.90;;;;;;4984960;28;19920;-74
2022/09/17 06:08:42;;;;;;;;;;;10.90;99.90;;;;;;4990066;28;19928;-75
2022/09/17 06:11:08;;;;;;;;;;;10.90;99.90;;;;;;4987376;28;19920;-75
2022/09/17 06:13:34;;;;;;;;;;;10.90;99.90;;;;;;4990003;28;19933;-75
2022/09/17 06:16:00;;;;;;;;;;;10.90;99.90;;;;;;4970901;28;20282;-75
2022/09/17 06:18:26;;;;;;;;;;;10.90;99.90;;;;;;4985133;28;19917;-75
2022/09/17 06:20:53;;;;;;;;;;;10.90;99.90;;;;;;4979410;28;19918;-75
2022/09/17 06:23:18;;;;;;;;;;;10.90;99.90;;;;;;4970564;28;19914;-75
2022/09/17 06:25:48;;;;;;;;;;;10.80;99.90;;;;;;4970299;28;20285;-74
2022/09/17 06:28:14;;;;;;;;;;;10.80;99.90;;;;;;4986839;28;20351;-75
2022/09/17 06:30:40;;;;;;;;;;;10.80;99.90;;;;;;4988547;28;19957;-75
2022/09/17 06:33:05;;;;;;;;;;;10.80;99.90;;;;;;4983290;28;19918;-75
2022/09/17 06:35:31;;;;;;;;;;;10.80;99.90;;;;;;4987336;28;20362;-75
2022/09/17 06:37:56;;;;;;;;;;;10.90;99.90;;;;;;4984487;28;19914;-75
2022/09/17 06:40:22;;;;;;;;;;;10.80;99.90;;;;;;4983782;28;19914;-75
2022/09/17 06:42:47;;;;;;;;;;;10.90;99.90;;;;;;4984444;28;19918;-74
2022/09/17 06:45:13;;;;;;;;;;;10.90;99.90;;;;;;4983945;28;19964;-74
2022/09/17 06:47:39;;;;;;;;;;;10.90;99.90;;;;;;4989158;28;20299;-74
2022/09/17 06:50:04;;;;;;;;;;;10.90;99.90;;;;;;4988380;28;19922;-77
2022/09/17 06:52:30;;;;;;;;;;;10.90;99.90;;;;;;4986304;28;20314;-74
2022/09/17 06:54:56;;;;;;;;;;;11.00;99.90;;;;;;4985002;28;19918;-74
2022/09/17 06:57:21;;;;;;;;;;;11.00;99.90;;;;;;4989486;28;19953;-74
2022/09/17 06:59:48;;;;;;;;;;;11.10;99.90;;;;;;4966862;28;19972;-75
2022/09/17 07:02:14;;;;;;;;;;;11.10;99.90;;;;;;4985364;28;20826;-74
2022/09/17 07:04:39;;;;;;;;;;;11.10;99.90;;;;;;4988134;28;19958;-74
2022/09/17 07:07:05;;;;;;;;;;;11.10;99.90;;;;;;4987879;28;19914;-74
2022/09/17 07:09:31;;;;;;;;;;;11.20;99.90;;;;;;4984084;28;19996;-74
2022/09/17 07:11:56;;;;;;;;;;;11.10;99.90;;;;;;4989350;28;19926;-73
2022/09/17 07:14:23;;;;;;;;;;;11.10;99.90;;;;;;4991825;28;19976;-73
2022/09/17 07:16:49;;;;;;;;;;;11.20;99.90;;;;;;4991257;28;19918;-74
2022/09/17 07:19:14;;;;;;;;;;;11.20;99.90;;;;;;4973505;28;19929;-73
2022/09/17 07:21:40;;;;;;;;;;;11.20;99.90;;;;;;4972364;28;19917;-73
2022/09/17 07:24:05;;;;;;;;;;;11.20;99.90;;;;;;4987257;28;19913;-73
2022/09/17 07:26:31;;;;;;;;;;;11.30;99.90;;;;;;4989973;28;19929;-74
2022/09/17 07:28:56;;;;;;;;;;;11.40;99.90;;;;;;4988022;28;19917;-74
2022/09/17 07:31:22;;;;;;;;;;;11.50;99.90;;;;;;4991712;28;19918;-75
2022/09/17 07:33:47;;;;;;;;;;;11.50;99.90;;;;;;4992145;28;19972;-74
2022/09/17 07:36:16;;;;;;;;;;;11.60;99.90;;;;;;4994363;28;20404;-74
2022/09/17 07:38:42;;;;;;;;;;;11.60;99.90;;;;;;4969758;28;20494;-74
2022/09/17 07:41:12;;;;;;;;;;;11.60;99.90;;;;;;4990522;28;19968;-73
2022/09/17 07:43:37;;;;;;;;;;;11.60;99.90;;;;;;4994215;28;20796;-74
2022/09/17 07:46:07;;;;;;;;;;;11.70;99.90;;;;;;4995655;28;19914;-74
2022/09/17 07:48:33;;;;;;;;;;;11.70;99.90;;;;;;4972875;28;19918;-74
2022/09/17 07:50:58;;;;;;;;;;;11.70;99.90;;;;;;4970820;28;19914;-74
2022/09/17 07:53:24;;;;;;;;;;;11.80;99.90;;;;;;4988179;28;19917;-74
2022/09/17 07:55:51;;;;;;;;;;;11.70;99.90;;;;;;4991013;28;20025;-74
2022/09/17 07:58:16;;;;;;;;;;;11.70;99.90;;;;;;4976889;28;19925;-74
2022/09/17 08:00:42;;;;;;;;;;;11.70;99.90;;;;;;4988953;28;19967;-74
2022/09/17 08:03:07;;;;;;;;;;;11.70;99.90;;;;;;4994291;28;20283;-74
2022/09/17 08:05:33;;;;;;;;;;;11.60;99.90;;;;;;4993483;28;19924;-74
2022/09/17 08:07:58;;;;;;;;;;;11.60;99.90;;;;;;4990972;28;19957;-74
2022/09/17 08:10:25;;;;;;;;;;;11.50;99.90;;;;;;4986827;28;19920;-74
2022/09/17 08:12:55;;;;;;;;;;;11.50;99.90;;;;;;4974703;28;20290;-74
2022/09/17 08:15:21;;;;;;;;;;;11.50;99.90;;;;;;4997052;28;19986;-73
2022/09/17 08:17:47;;;;;;;;;;;11.50;99.90;;;;;;4991901;28;19962;-73
2022/09/17 08:20:13;;;;;;;;;;;11.50;99.90;;;;;;4987712;28;20008;-74
2022/09/17 08:22:39;;;;;;;;;;;11.60;99.90;;;;;;4987927;28;20370;-74
2022/09/17 08:25:05;;;;;;;;;;;11.50;99.90;;;;;;4991127;28;19921;-74
2022/09/17 08:27:31;;;;;;;;;;;11.50;99.90;;;;;;4992193;28;19921;-74
2022/09/17 08:29:57;;;;;;;;;;;11.50;99.90;;;;;;4988238;28;20297;-74
2022/09/17 08:32:22;;;;;;;;;;;11.60;99.90;;;;;;4990875;28;19929;-73
2022/09/17 08:34:48;;;;;;;;;;;11.60;99.90;;;;;;4991349;28;19932;-74
2022/09/17 08:37:13;;;;;;;;;;;11.70;99.90;;;;;;4989406;28;19928;-74
2022/09/17 08:39:39;;;;;;;;;;;11.70;99.90;;;;;;4988293;28;20000;-74
2022/09/17 08:42:12;;;;;;;;;;;11.70;99.90;;;;;;4989503;28;19949;-74
2022/09/17 08:44:42;;;;;;;;;;;11.70;99.90;;;;;;4974262;28;19965;-73
2022/09/17 08:47:28;;;;;;;;;;;11.70;99.90;;;;;;4974089;28;19918;-73
2022/09/17 08:49:55;;;;;;;;;;;11.70;99.90;;;;;;5005050;23;19938;-78
2022/09/17 08:52:40;;;;;;;;;;;11.70;99.90;;;;;;4982392;28;19925;-78
2022/09/17 08:55:12;;;;;;;;;;;11.70;99.90;;;;;;4979219;28;19969;-78
2022/09/17 08:57:59;;;;;;;;;;;11.70;99.90;;;;;;4977803;28;21020;-77
2022/09/17 09:00:28;;;;;;;;;;;11.70;99.90;;;;;;4963536;28;19914;-78
2022/09/17 09:03:13;;;;;;;;;;;11.70;99.90;;;;;;4962470;28;20233;-78
2022/09/17 09:05:38;;;;;;;;;;;11.80;99.90;;;;;;4959543;28;19961;-78
2022/09/17 09:08:30;;;;;;;;;;;11.80;99.90;;;;;;4961979;28;19914;-77
2022/09/17 09:11:00;;;;;;;;;;;11.80;99.90;;;;;;4945428;28;19925;-79
2022/09/17 09:13:28;;;;;;;;;;;11.80;99.90;;;;;;4963660;28;19926;-78
2022/09/17 09:15:58;;;;;;;;;;;11.90;99.90;;;;;;4960056;28;19925;-78
2022/09/17 09:18:25;;;;;;;;;;;11.90;99.90;;;;;;4960303;28;20442;-78
2022/09/17 09:20:54;;;;;;;;;;;11.90;99.90;;;;;;4956685;28;20001;-78
2022/09/17 09:23:39;;;;;;;;;;;12.00;99.90;;;;;;4960207;28;19915;-78
2022/09/17 09:26:13;;;;;;;;;;;12.00;99.90;;;;;;4976087;28;19915;-78
2022/09/17 09:28:48;;;;;;;;;;;12.00;99.90;;;;;;4956799;28;19923;-78
2022/09/17 09:31:26;;;;;;;;;;;12.00;99.90;;;;;;4956025;28;20022;-78
2022/09/17 09:33:52;;;;;;;;;;;12.10;99.90;;;;;;4960739;28;19924;-78
2022/09/17 09:36:20;;;;;;;;;;;12.10;99.90;;;;;;4957382;28;20379;-78
2022/09/17 09:38:58;;;;;;;;;;;12.00;99.90;;;;;;4956505;28;20399;-77
2022/09/17 09:41:23;;;;;;;;;;;12.10;99.90;;;;;;4972819;28;19918;-78
2022/09/17 09:43:58;;;;;;;;;;;12.10;99.90;;;;;;4954240;28;19925;-77
2022/09/17 09:46:30;;;;;;;;;;;12.20;99.90;;;;;;4975006;28;19925;-78
2022/09/17 09:48:59;;;;;;;;;;;12.30;99.90;;;;;;4952638;28;19919;-78
2022/09/17 09:51:39;;;;;;;;;;;12.40;99.90;;;;;;4952935;28;20287;-78
2022/09/17 09:54:04;;;;;;;;;;;12.40;99.90;;;;;;4954068;28;19951;-78
2022/09/17 09:56:50;;;;;;;;;;;12.30;99.90;;;;;;4959063;28;19915;-77
2022/09/17 09:59:17;;;;;;;;;;;12.30;99.90;;;;;;4955482;28;24247;-78
2022/09/17 10:01:43;;;;;;;;;;;12.30;99.90;;;;;;4954411;28;19965;-78
2022/09/17 10:04:17;;;;;;;;;;;12.30;99.90;;;;;;4957648;28;19914;-78
2022/09/17 10:06:42;;;;;;;;;;;12.40;99.90;;;;;;4961060;28;19969;-79
2022/09/17 10:09:09;;;;;;;;;;;12.50;99.90;;;;;;4967589;28;20005;-79
2022/09/17 10:11:35;;;;;;;;;;;12.50;99.90;;;;;;4960419;28;19918;-77
2022/09/17 10:14:20;;;;;;;;;;;12.60;99.90;;;;;;4971656;28;19929;-79
2022/09/17 10:16:45;;;;;;;;;;;12.60;99.90;;;;;;4956956;28;19915;-77
2022/09/17 10:19:13;;;;;;;;;;;12.60;99.90;;;;;;4955036;28;19915;-77
2022/09/17 10:21:42;;;;;;;;;;;12.70;99.90;;;;;;4946008;28;20451;-79
2022/09/17 10:24:24;;;;;;;;;;;12.80;99.90;;;;;;4957520;29;19929;-78
2022/09/17 10:26:50;;;;;;;;;;;12.80;99.90;;;;;;4954728;28;20273;-79
2022/09/17 10:29:18;;;;;;;;;;;12.90;99.90;;;;;;4953829;28;19914;-77
2022/09/17 10:31:54;;;;;;;;;;;12.90;99.90;;;;;;4974067;28;20399;-78
2022/09/17 10:34:27;;;;;;;;;;;13.00;99.90;;;;;;4951815;28;19919;-78
2022/09/17 10:36:57;;;;;;;;;;;13.10;99.90;;;;;;4970156;28;19921;-79
2022/09/17 10:39:25;;;;;;;;;;;13.10;99.90;;;;;;4968199;28;19993;-78
2022/09/17 10:42:03;;;;;;;;;;;13.10;99.90;;;;;;4953355;28;19914;-78
2022/09/17 10:44:30;;;;;;;;;;;13.10;99.90;;;;;;4954880;28;19921;-79
2022/09/17 10:47:01;;;;;;;;;;;13.20;99.90;;;;;;4966371;28;20013;-79
2022/09/17 10:49:26;;;;;;;;;;;13.20;99.90;;;;;;4950214;28;19919;-78
2022/09/17 10:52:02;;;;;;;;;;;13.30;99.90;;;;;;4954319;28;19915;-77
2022/09/17 10:54:28;;;;;;;;;;;13.30;99.90;;;;;;4968833;28;19918;-78
2022/09/17 10:56:55;;;;;;;;;;;13.30;99.90;;;;;;4957040;28;19919;-79
2022/09/17 10:59:27;;;;;;;;;;;13.30;99.90;;;;;;4956454;28;19923;-77
2022/09/17 11:02:11;;;;;;;;;;;13.40;99.90;;;;;;4955502;28;19921;-78
2022/09/17 11:04:36;;;;;;;;;;;13.40;99.90;;;;;;4950705;28;20397;-78
2022/09/17 11:07:02;;;;;;;;;;;13.40;99.90;;;;;;4949572;28;19958;-79
2022/09/17 11:09:52;;;;;;;;;;;13.30;99.90;;;;;;4952274;28;19951;-78
2022/09/17 11:12:17;;;;;;;;;;;13.30;99.90;;;;;;4956970;28;19978;-76
2022/09/17 11:14:56;;;;;;;;;;;13.40;99.90;;;;;;4954649;28;19934;-78
2022/09/17 11:17:27;;;;;;;;;;;13.30;99.90;;;;;;4970205;28;19922;-77
2022/09/17 11:20:13;;;;;;;;;;;13.40;99.90;;;;;;4951656;28;20491;-78
2022/09/17 11:22:50;;;;;;;;;;;13.40;99.90;;;;;;4937706;28;19918;-69
2022/09/17 11:25:21;;;;;;;;;;;13.40;99.90;;;;;;4949752;28;20017;-78
2022/09/17 11:27:59;;;;;;;;;;;13.50;99.90;;;;;;4949678;28;19915;-79
2022/09/17 11:30:27;;;;;;;;;;;13.60;99.90;;;;;;4949474;28;20361;-78
2022/09/17 11:33:19;;;;;;;;;;;13.70;99.90;;;;;;4947451;28;20323;-78
2022/09/17 11:35:49;;;;;;;;;;;13.80;99.90;;;;;;4951028;28;19922;-78
2022/09/17 11:38:29;;;;;;;;;;;14.00;99.90;;;;;;4955609;28;19914;-78
2022/09/17 11:41:01;;;;;;;;;;;14.10;99.90;;;;;;4945663;28;20375;-78
2022/09/17 11:43:27;;;;;;;;;;;14.20;99.90;;;;;;4950251;28;19938;-78
2022/09/17 11:46:06;;;;;;;;;;;14.30;99.90;;;;;;4955529;28;19969;-78
2022/09/17 11:48:49;;;;;;;;;;;14.30;99.90;;;;;;4951187;28;19921;-77
2022/09/17 11:51:20;;;;;;;;;;;14.30;99.90;;;;;;4954571;28;21263;-78
2022/09/17 11:53:49;;;;;;;;;;;14.30;99.90;;;;;;4959072;28;20233;-79
2022/09/17 11:56:22;;;;;;;;;;;14.30;99.90;;;;;;4971513;28;19929;-78
2022/09/17 11:58:57;;;;;;;;;;;14.30;99.90;;;;;;4959230;28;19915;-77
2022/09/17 12:01:41;;;;;;;;;;;14.40;99.90;;;;;;4954104;28;19918;-77
2022/09/17 12:04:42;;;;;;;;;;;14.40;99.90;;;;;;4955251;28;19997;-77
2022/09/17 12:07:18;;;;;;;;;;;14.50;99.90;;;;;;4948918;29;19919;-77
2022/09/17 12:09:47;;;;;;;;;;;14.60;99.90;;;;;;4951782;28;20190;-78
2022/09/17 12:12:17;;;;;;;;;;;14.60;99.90;;;;;;4954079;28;19922;-77
2022/09/17 12:14:49;;;;;;;;;;;14.60;99.90;;;;;;4951268;28;19918;-77
2022/09/17 12:17:20;;;;;;;;;;;14.70;99.90;;;;;;4953060;28;19926;-76
2022/09/17 12:19:48;;;;;;;;;;;14.70;99.90;;;;;;4953124;28;20348;-77
2022/09/17 12:22:17;;;;;;;;;;;14.60;99.00;;;;;;4956409;28;20549;-76
2022/09/17 12:24:43;;;;;;;;;;;14.70;99.30;;;;;;4952969;28;19921;-79
2022/09/17 12:27:14;;;;;;;;;;;14.70;99.20;;;;;;4956340;28;19915;-77
2022/09/17 12:29:58;;;;;;;;;;;14.80;98.70;;;;;;4955541;28;20376;-77
2022/09/17 12:32:42;;;;;;;;;;;14.90;98.90;;;;;;4954062;28;20462;-77
2022/09/17 12:35:29;;;;;;;;;;;15.00;99.00;;;;;;4957619;28;20244;-79
2022/09/17 12:38:07;;;;;;;;;;;15.10;99.10;;;;;;4954506;28;19930;-79
2022/09/17 12:40:38;;;;;;;;;;;15.20;98.80;;;;;;4958432;29;20280;-79
2022/09/17 12:43:12;;;;;;;;;;;15.20;98.10;;;;;;4968008;28;19914;-77
2022/09/17 12:45:56;;;;;;;;;;;15.20;98.10;;;;;;4968839;28;19923;-78
2022/09/17 12:48:25;;;;;;;;;;;15.20;98.30;;;;;;4956265;28;19915;-79
2022/09/17 12:51:06;;;;;;;;;;;15.20;98.30;;;;;;4956364;28;20343;-78
2022/09/17 12:53:37;;;;;;;;;;;15.20;98.40;;;;;;4955184;28;19918;-77
2022/09/17 12:56:03;;;;;;;;;;;15.20;98.10;;;;;;4956268;28;19914;-78
2022/09/17 12:58:47;;;;;;;;;;;15.20;98.30;;;;;;4953688;28;20005;-79
2022/09/17 13:01:19;;;;;;;;;;;15.20;98.20;;;;;;4952605;28;19914;-78
2022/09/17 13:03:49;;;;;;;;;;;15.20;98.20;;;;;;4954647;28;19925;-76
2022/09/17 13:06:24;;;;;;;;;;;15.20;98.30;;;;;;4954635;28;20396;-79
2022/09/17 13:08:55;;;;;;;;;;;15.20;97.80;;;;;;4955061;28;19915;-79
2022/09/17 13:11:39;;;;;;;;;;;15.30;97.60;;;;;;4955217;28;20368;-79
2022/09/17 13:14:24;;;;;;;;;;;15.30;97.60;;;;;;4950552;28;20462;-77
2022/09/17 13:16:55;;;;;;;;;;;15.20;97.60;;;;;;4952531;28;19915;-76
2022/09/17 13:19:40;;;;;;;;;;;15.20;97.90;;;;;;4958582;28;20379;-80
2022/09/17 13:22:09;;;;;;;;;;;15.20;98.10;;;;;;4963534;28;19918;-78
2022/09/17 13:24:36;;;;;;;;;;;15.20;98.30;;;;;;4951645;28;20008;-76
2022/09/17 13:27:03;;;;;;;;;;;15.10;98.30;;;;;;4950246;28;19999;-80
2022/09/17 13:29:43;;;;;;;;;;;15.00;98.50;;;;;;4953383;28;19922;-78
2022/09/17 13:32:29;;;;;;;;;;;15.00;98.40;;;;;;4952135;29;20312;-79
2022/09/17 13:34:54;;;;;;;;;;;14.80;98.70;;;;;;4948237;28;19930;-79
2022/09/17 13:37:21;;;;;;;;;;;14.50;98.80;;;;;;4960287;29;19910;-79
2022/09/17 13:39:49;;;;;;;;;;;14.30;99.90;;;;;;4958419;28;19922;-78
2022/09/17 13:42:18;;;;;;;;;;;14.00;99.90;;;;;;4974200;28;19922;-78
2022/09/17 13:44:45;;;;;;;;;;;13.70;99.90;;;;;;4957040;28;19914;-79
2022/09/17 13:47:11;;;;;;;;;;;13.30;99.90;;;;;;4957263;28;20007;-78
2022/09/17 13:49:42;;;;;;;;;;;13.10;99.90;;;;;;4972988;28;19949;-79
2022/09/17 13:52:08;;;;;;;;;;;13.00;99.90;;;;;;4971991;28;19914;-78
2022/09/17 13:54:35;;;;;;;;;;;12.80;99.90;;;;;;4970573;28;20069;-78
2022/09/17 13:57:09;;;;;;;;;;;12.70;99.90;;;;;;4950727;28;19914;-78
2022/09/17 13:59:36;;;;;;;;;;;12.70;99.90;;;;;;4955087;28;20315;-79
2022/09/17 14:02:17;;;;;;;;;;;12.70;99.90;;;;;;4975580;28;20165;-79
2022/09/17 14:04:42;;;;;;;;;;;12.60;99.90;;;;;;4957583;28;19915;-79
2022/09/17 14:07:20;;;;;;;;;;;12.70;99.90;;;;;;4954754;28;19927;-77
2022/09/17 14:09:51;;;;;;;;;;;12.60;99.90;;;;;;4955905;28;19917;-77
2022/09/17 14:12:36;;;;;;;;;;;12.70;99.90;;;;;;4973931;28;19898;-79
2022/09/17 14:15:01;;;;;;;;;;;12.80;99.90;;;;;;4955120;28;19919;-78
2022/09/17 14:17:45;;;;;;;;;;;12.80;99.90;;;;;;4956375;28;19899;-78
2022/09/17 14:20:11;;;;;;;;;;;12.90;99.90;;;;;;4957689;28;19914;-79
2022/09/17 14:22:37;;;;;;;;;;;12.90;99.90;;;;;;4968338;28;19918;-79
2022/09/17 14:25:03;;;;;;;;;;;12.90;99.90;;;;;;4968536;28;19915;-77
2022/09/17 14:27:39;;;;;;;;;;;13.00;99.90;;;;;;4954930;28;19954;-79
2022/09/17 14:30:11;;;;;;;;;;;13.00;99.90;;;;;;4954299;29;19914;-77